Greenwood, South Carolina
Current Conditions -  °F | °C
As of 9:56 AM on Thursday 30 Oct 2014 (Local Time) from KGRD Reporting Station
Clear Clear  
Wind Chill: 57°   Ceiling: Unl
Heat Index: 57°   Visibility: 10mi
Dew Point: 44°   Wind: 7mph
Humidity: 62%   Direction: 10°N
Pressure: 30.09"   Gusts: NA
Location:  34.19°N, 82.16°W
Report Text: KGRD 301356Z AUTO 01006KT 10SM CLR 14/07 A3009 RMK AO2 SLP186 T01390067
Loading
Personal Weather Stations






























Interactive Weather Map New forecast layout! Learn more

10-Day Weather Forecast

Advertisements
Track Severe Weather on mobile